Terminal Aerodrome Forecast
Issued by NWS

Home | Current Version | Previous Version | Text Only | Print | Product List | Glossary On
Versions: 1 2 3 4 5 6 7 8 9 10 11 12
429
FTUS45 KRIW 282320
TAFCOD
TAF
KCOD 282320Z 2900/2924 14011KT P6SM FEW120
     FM290100 21005KT P6SM SCT200
     FM291400 22011KT P6SM SCT100 BKN200
     FM292000 14008KT P6SM VCSH SCT060 BKN080
      AMD LTD TO CLD VIS AND WIND=

USA.gov is the U.S. government's official web portal to all federal, state and local government web resources and services.